Time;durP1;ratioP1;P1;durP2;ratioP2;P2;SDS_P1;SDS_P2;PMS_P1;PMS_P2;Temp;Humidity;BMP_temperature;BMP_pressure;BME280_temperature;BME280_humidity;BME280_pressure;Samples;Min_cycle;Max_cycle;Signal;HPM_P1;HPM_P2
2022/04/15 00:01:03;;;;;;;4.53;3.10;;;;;;;8.14;100.00;102504.44;4919386;29;20047;-87
2022/04/15 00:03:32;;;;;;;5.38;3.10;;;;;;;8.12;100.00;102507.00;4915905;29;20039;-86
2022/04/15 00:06:00;;;;;;;7.05;2.70;;;;;;;8.13;100.00;102506.19;4919497;29;20136;-87
2022/04/15 00:08:29;;;;;;;6.22;2.40;;;;;;;8.13;100.00;102508.81;4920380;29;20062;-86
2022/04/15 00:10:58;;;;;;;4.07;3.47;;;;;;;8.13;100.00;102503.56;4919375;29;20051;-86
2022/04/15 00:13:32;;;;;;;5.57;2.90;;;;;;;8.13;100.00;102514.06;4908317;28;20511;-87
2022/04/15 00:16:06;;;;;;;6.10;3.45;;;;;;;8.14;100.00;102507.06;4934424;29;20051;-86
2022/04/15 00:18:36;;;;;;;9.38;2.90;;;;;;;8.12;100.00;102504.38;4915966;28;20050;-86
2022/04/15 00:21:05;;;;;;;7.40;3.63;;;;;;;8.08;100.00;102506.84;4934437;29;20035;-86
2022/04/15 00:23:34;;;;;;;5.85;3.13;;;;;;;8.07;100.00;102497.16;4953324;29;20051;-86
2022/04/15 00:26:03;;;;;;;5.35;3.10;;;;;;;8.07;100.00;102502.41;4921432;29;20047;-87
2022/04/15 00:28:31;;;;;;;2.97;2.78;;;;;;;8.06;100.00;102504.13;4936895;29;20123;-87
2022/04/15 00:31:00;;;;;;;6.35;3.33;;;;;;;8.09;100.00;102506.91;4932556;28;20054;-87
2022/04/15 00:33:29;;;;;;;3.65;2.85;;;;;;;8.10;100.00;102508.69;4946221;28;20296;-87
2022/04/15 00:35:58;;;;;;;3.90;3.53;;;;;;;8.11;100.00;102505.22;4951649;29;20055;-87
2022/04/15 00:38:26;;;;;;;9.60;4.18;;;;;;;8.10;100.00;102510.41;4930462;29;20253;-86
2022/04/15 00:40:54;;;;;;;6.82;3.70;;;;;;;8.12;100.00;102506.13;4914765;28;20047;-86
2022/04/15 00:43:23;;;;;;;6.10;3.70;;;;;;;8.11;100.00;102504.31;4899667;29;20075;-86
2022/04/15 00:45:51;;;;;;;5.72;3.85;;;;;;;8.12;100.00;102511.38;4914285;29;20048;-87
2022/04/15 00:48:23;;;;;;;6.72;4.13;;;;;;;8.12;100.00;102520.13;4925173;28;20343;-87
2022/04/15 00:50:52;;;;;;;8.27;4.05;;;;;;;8.12;100.00;102519.25;4947685;28;20043;-87
2022/04/15 00:53:22;;;;;;;7.28;3.97;;;;;;;8.13;100.00;102521.06;4925451;29;20058;-87
2022/04/15 00:55:57;;;;;;;11.68;4.32;;;;;;;8.11;100.00;102515.72;4923999;28;20047;-87
2022/04/15 00:58:27;;;;;;;12.18;4.60;;;;;;;8.11;100.00;102513.09;4946384;29;20062;-86
2022/04/15 01:00:57;;;;;;;13.18;5.30;;;;;;;8.12;100.00;102516.63;4912016;29;20388;-86
2022/04/15 01:03:28;;;;;;;9.07;4.75;;;;;;;8.11;100.00;102523.59;4917856;29;20313;-86
2022/04/15 01:06:03;;;;;;;10.65;4.28;;;;;;;8.11;100.00;102520.06;4940277;28;20393;-86
2022/04/15 01:08:37;;;;;;;9.57;4.00;;;;;;;8.09;100.00;102517.41;4944275;29;20059;-86
2022/04/15 01:11:10;;;;;;;9.70;4.13;;;;;;;8.08;100.00;102520.84;4928960;29;20161;-86
2022/04/15 01:13:41;;;;;;;10.75;4.07;;;;;;;8.06;100.00;102525.16;4942943;28;20039;-86
2022/04/15 01:16:11;;;;;;;12.93;5.00;;;;;;;8.06;100.00;102517.28;4923262;29;20055;-86
2022/04/15 01:18:39;;;;;;;12.23;4.75;;;;;;;8.06;100.00;102517.28;4956737;28;20043;-85
2022/04/15 01:21:10;;;;;;;14.23;5.53;;;;;;;8.07;100.00;102523.41;4932089;29;20062;-86
2022/04/15 01:23:42;;;;;;;14.07;5.00;;;;;;;8.07;100.00;102519.06;4959593;28;20043;-86
2022/04/15 01:26:10;;;;;;;12.60;6.50;;;;;;;8.08;100.00;102519.97;4921151;29;20062;-86
2022/04/15 01:28:38;;;;;;;13.90;5.60;;;;;;;8.10;100.00;102510.41;4924496;29;20058;-86
2022/04/15 01:31:07;;;;;;;9.52;5.28;;;;;;;8.11;100.00;102510.47;4906557;28;20034;-86
2022/04/15 01:33:35;;;;;;;9.80;5.85;;;;;;;8.10;100.00;102519.19;4927734;29;20051;-86
2022/04/15 01:36:04;;;;;;;13.57;6.03;;;;;;;8.10;100.00;102519.19;4933234;28;20051;-86
2022/04/15 01:38:33;;;;;;;12.07;6.50;;;;;;;8.10;100.00;102513.94;4919816;29;20039;-86
2022/04/15 01:41:01;;;;;;;11.80;6.00;;;;;;;8.12;100.00;102519.25;4931234;29;20417;-86
2022/04/15 01:43:30;;;;;;;16.80;5.95;;;;;;;8.12;100.00;102522.75;4938808;28;20391;-86
2022/04/15 01:45:58;;;;;;;16.45;5.82;;;;;;;8.12;100.00;102528.00;4926441;28;20073;-86
2022/04/15 01:48:27;;;;;;;15.63;7.10;;;;;;;8.12;100.00;102527.13;4917609;29;20558;-85
2022/04/15 01:50:55;;;;;;;15.25;6.75;;;;;;;8.10;100.00;102537.56;4915501;29;20048;-86
2022/04/15 01:53:24;;;;;;;15.05;7.07;;;;;;;8.09;100.00;102535.78;4907982;29;20358;-86
2022/04/15 01:55:52;;;;;;;16.25;7.40;;;;;;;8.08;100.00;102547.09;4937842;29;20040;-86
2022/04/15 01:58:21;;;;;;;9.07;4.63;;;;;;;8.03;100.00;102543.38;4919894;29;20052;-86
2022/04/15 02:00:49;;;;;;;8.32;5.47;;;;;;;7.99;100.00;102549.34;4932317;28;20051;-86
2022/04/15 02:03:18;;;;;;;7.60;4.10;;;;;;;7.94;100.00;102558.75;4929465;28;20387;-86
2022/04/15 02:05:46;;;;;;;7.63;4.63;;;;;;;7.86;100.00;102553.19;4925911;29;20051;-86
2022/04/15 02:08:15;;;;;;;4.22;3.83;;;;;;;7.78;100.00;102558.13;4938126;29;20051;-85
2022/04/15 02:10:43;;;;;;;5.00;3.42;;;;;;;7.70;100.00;102554.28;4956413;28;20058;-86
2022/04/15 02:13:12;;;;;;;4.85;4.35;;;;;;;7.68;100.00;102558.59;4938920;29;20051;-86
2022/04/15 02:15:41;;;;;;;4.32;3.88;;;;;;;7.67;100.00;102564.66;4938011;29;20035;-86
2022/04/15 02:18:09;;;;;;;6.43;3.83;;;;;;;7.67;100.00;102559.41;4923149;28;20047;-86
2022/04/15 02:20:38;;;;;;;5.47;3.25;;;;;;;7.64;100.00;102553.13;4928681;29;20393;-85
2022/04/15 02:23:06;;;;;;;4.22;3.80;;;;;;;7.60;100.00;102557.38;4934104;29;20052;-88
2022/04/15 02:25:35;;;;;;;4.88;4.10;;;;;;;7.59;100.00;102561.69;4940851;29;20035;-86
2022/04/15 02:28:03;;;;;;;5.88;2.90;;;;;;;7.56;100.00;102558.97;4939998;29;20031;-85
2022/04/15 02:30:32;;;;;;;12.05;3.00;;;;;;;7.54;100.00;102563.25;4915594;29;20055;-87
2022/04/15 02:33:01;;;;;;;5.95;3.42;;;;;;;7.54;100.00;102562.34;4914030;28;20046;-87
2022/04/15 02:35:30;;;;;;;5.22;3.90;;;;;;;7.55;100.00;102575.53;4940714;28;20485;-86
2022/04/15 02:37:59;;;;;;;8.25;5.18;;;;;;;7.57;100.00;102572.97;4936195;28;20043;-86
2022/04/15 02:40:27;;;;;;;7.80;6.32;;;;;;;7.54;100.00;102571.13;4938986;28;20257;-86
2022/04/15 02:42:56;;;;;;;8.88;6.28;;;;;;;7.54;100.00;102573.75;4939113;29;20051;-87
2022/04/15 02:45:24;;;;;;;7.00;6.30;;;;;;;7.51;100.00;102578.84;4923229;29;20289;-86
2022/04/15 02:47:53;;;;;;;7.38;6.68;;;;;;;7.51;100.00;102570.97;4925922;29;20035;-86
2022/04/15 02:50:22;;;;;;;6.72;5.88;;;;;;;7.49;100.00;102579.63;4934469;28;20166;-86
2022/04/15 02:52:50;;;;;;;5.88;5.35;;;;;;;7.46;100.00;102569.88;4906908;29;20055;-86
2022/04/15 02:55:19;;;;;;;5.18;4.68;;;;;;;7.40;100.00;102574.84;4916696;29;20332;-86
2022/04/15 02:57:47;;;;;;;5.50;4.07;;;;;;;7.36;100.00;102579.06;4950301;28;20046;-85
2022/04/15 03:00:16;;;;;;;3.92;3.60;;;;;;;7.30;100.00;102586.69;4940997;29;20043;-86
2022/04/15 03:02:45;;;;;;;6.68;3.72;;;;;;;7.29;100.00;102576.13;4918756;28;20051;-86
2022/04/15 03:05:13;;;;;;;4.75;3.35;;;;;;;7.27;100.00;102594.41;4929106;28;20284;-86
2022/04/15 03:07:41;;;;;;;5.63;3.72;;;;;;;7.23;100.00;102595.09;4953005;28;20070;-87
2022/04/15 03:10:10;;;;;;;6.38;3.90;;;;;;;7.23;100.00;102595.09;4915135;29;20154;-86
2022/04/15 03:12:39;;;;;;;5.32;3.55;;;;;;;7.24;100.00;102594.28;4918019;29;20047;-86
2022/04/15 03:15:11;;;;;;;5.18;3.78;;;;;;;7.23;100.00;102590.72;4908582;29;20409;-86
2022/04/15 03:17:39;;;;;;;7.32;4.28;;;;;;;7.22;100.00;102594.19;4938860;29;20035;-86
2022/04/15 03:20:09;;;;;;;7.30;4.35;;;;;;;7.23;100.00;102595.09;4924732;28;20058;-86
2022/04/15 03:22:43;;;;;;;5.65;4.78;;;;;;;7.26;100.00;102602.19;4894740;29;20052;-86
2022/04/15 03:25:14;;;;;;;4.22;3.30;;;;;;;7.22;100.00;102595.91;4939180;28;20631;-85
2022/04/15 03:27:44;;;;;;;4.25;3.15;;;;;;;7.19;100.00;102596.66;4938919;29;20031;-86
2022/04/15 03:30:14;;;;;;;6.55;3.55;;;;;;;7.19;100.00;102607.16;4951610;28;20047;-86
2022/04/15 03:32:46;;;;;;;5.17;4.17;;;;;;;7.16;100.00;102612.25;4937514;29;20039;-86
2022/04/15 03:35:16;;;;;;;2.90;2.70;;;;;;;7.14;100.00;102608.66;4916494;29;20046;-86
2022/04/15 03:37:45;;;;;;;4.90;3.03;;;;;;;7.13;100.00;102611.25;4925187;29;20046;-86
2022/04/15 03:40:13;;;;;;;5.07;2.95;;;;;;;7.11;100.00;102612.91;4943789;28;20303;-86
2022/04/15 03:42:44;;;;;;;4.63;3.80;;;;;;;7.11;100.00;102600.69;4923391;29;20047;-86
2022/04/15 03:45:14;;;;;;;5.60;3.60;;;;;;;7.13;100.00;102606.00;4921165;29;20276;-86
2022/04/15 03:47:42;;;;;;;5.63;4.07;;;;;;;7.13;100.00;102611.25;4946817;28;20038;-86
2022/04/15 03:50:12;;;;;;;4.10;3.78;;;;;;;7.10;100.00;102618.97;4941653;29;20186;-86
2022/04/15 03:52:46;;;;;;;4.43;3.03;;;;;;;7.09;100.00;102619.78;4918215;29;20035;-86
2022/04/15 03:55:19;;;;;;;4.53;3.08;;;;;;;7.07;100.00;102629.28;4943366;28;20549;-86
2022/04/15 03:57:48;;;;;;;3.38;2.72;;;;;;;7.06;100.00;102630.13;4936047;29;20039;-86
2022/04/15 04:00:18;;;;;;;2.80;2.60;;;;;;;7.03;100.00;102636.13;4920468;29;20059;-86
2022/04/15 04:02:49;;;;;;;4.20;2.78;;;;;;;7.01;100.00;102629.91;4935905;28;20055;-86
2022/04/15 04:05:19;;;;;;;3.97;3.08;;;;;;;6.99;100.00;102634.19;4951715;29;20055;-86
2022/04/15 04:07:48;;;;;;;5.38;2.17;;;;;;;6.94;100.00;102636.59;4937761;29;20374;-87
2022/04/15 04:10:17;;;;;;;2.80;2.42;;;;;;;6.92;100.00;102643.50;4913541;29;20050;-86
2022/04/15 04:12:45;;;;;;;4.65;2.95;;;;;;;6.90;100.00;102649.47;4930550;28;20058;-86
2022/04/15 04:15:14;;;;;;;4.50;3.33;;;;;;;6.86;100.00;102643.19;4932093;29;20234;-86
2022/04/15 04:17:46;;;;;;;6.40;3.63;;;;;;;6.86;100.00;102648.44;4933511;29;20035;-86
2022/04/15 04:20:16;;;;;;;6.53;3.85;;;;;;;6.82;100.00;102650.03;4902849;29;20292;-86
2022/04/15 04:22:44;;;;;;;3.28;2.30;;;;;;;6.80;100.00;102656.91;4911997;29;20781;-86
2022/04/15 04:25:13;;;;;;;2.53;2.17;;;;;;;6.79;100.00;102649.88;4924961;29;20249;-86
2022/04/15 04:27:43;;;;;;;3.20;2.90;;;;;;;6.78;100.00;102657.66;4953425;28;20054;-86
2022/04/15 04:30:13;;;;;;;4.23;2.77;;;;;;;6.78;100.00;102655.94;4923149;29;20039;-86
2022/04/15 04:32:49;;;;;;;6.85;4.18;;;;;;;6.79;100.00;102659.47;4955983;29;20516;-86
2022/04/15 04:35:21;;;;;;;3.85;3.22;;;;;;;6.81;100.00;102665.69;4936413;29;20055;-86
2022/04/15 04:37:50;;;;;;;5.00;3.88;;;;;;;6.83;100.00;102664.03;4950460;28;20036;-86
2022/04/15 04:40:18;;;;;;;5.38;4.53;;;;;;;6.83;100.00;102664.91;4915626;28;20048;-86
2022/04/15 04:42:49;;;;;;;6.53;5.13;;;;;;;6.86;100.00;102676.38;4950945;28;20409;-86
2022/04/15 04:45:19;;;;;;;7.75;5.30;;;;;;;6.88;100.00;102666.84;4972317;28;20047;-86
2022/04/15 04:47:48;;;;;;;5.80;5.25;;;;;;;6.92;100.00;102680.19;4942502;29;20050;-86
2022/04/15 04:50:17;;;;;;;6.25;5.00;;;;;;;6.96;100.00;102681.25;4939902;29;20038;-86
2022/04/15 04:52:48;;;;;;;6.13;5.18;;;;;;;6.96;100.00;102679.50;4957838;28;20035;-86
2022/04/15 04:55:17;;;;;;;8.32;6.07;;;;;;;6.98;100.00;102671.72;4940684;28;20062;-87
2022/04/15 04:57:47;;;;;;;8.82;5.60;;;;;;;7.00;100.00;102677.94;4953309;28;20039;-86
2022/04/15 05:00:17;;;;;;;7.55;6.65;;;;;;;7.05;100.00;102696.47;4943954;29;20048;-86
2022/04/15 05:02:46;;;;;;;11.70;7.65;;;;;;;7.06;100.00;102693.06;4929018;28;20039;-86
2022/04/15 05:05:14;;;;;;;8.50;7.53;;;;;;;7.06;100.00;102693.94;4924838;29;20059;-86
2022/04/15 05:07:43;;;;;;;11.60;8.35;;;;;;;7.08;100.00;102707.13;4948795;29;20051;-86
2022/04/15 05:10:11;;;;;;;12.73;9.27;;;;;;;7.10;100.00;102706.38;4908170;28;20070;-86
2022/04/15 05:12:40;;;;;;;14.18;9.63;;;;;;;7.12;100.00;102702.09;4957090;28;20044;-85
2022/04/15 05:15:09;;;;;;;18.90;11.65;;;;;;;7.11;100.00;102707.28;4923564;29;20060;-87
2022/04/15 05:17:43;;;;;;;16.83;11.85;;;;;;;7.10;100.00;102703.75;4947847;29;20427;-86
2022/04/15 05:20:13;;;;;;;19.33;10.40;;;;;;;7.10;100.00;102714.22;4958697;28;20453;-86
2022/04/15 05:22:42;;;;;;;13.33;10.03;;;;;;;7.13;100.00;102718.75;4919139;29;20056;-86
2022/04/15 05:25:11;;;;;;;16.55;9.23;;;;;;;7.13;100.00;102718.75;4907169;29;20300;-87
2022/04/15 05:27:40;;;;;;;13.48;8.85;;;;;;;7.15;100.00;102714.47;4929334;29;20046;-87
2022/04/15 05:30:09;;;;;;;12.35;8.93;;;;;;;7.15;100.00;102728.47;4919823;29;20040;-86
2022/04/15 05:32:37;;;;;;;18.85;10.23;;;;;;;7.14;100.00;102733.63;4933606;29;20051;-86
2022/04/15 05:35:07;;;;;;;17.17;10.55;;;;;;;7.14;100.00;102734.50;4911921;28;20055;-86
2022/04/15 05:37:35;;;;;;;17.30;10.10;;;;;;;7.15;100.00;102731.09;4954061;29;20409;-86
2022/04/15 05:40:04;;;;;;;14.30;10.48;;;;;;;7.15;100.00;102746.81;4936228;29;20040;-84
2022/04/15 05:42:32;;;;;;;17.42;10.93;;;;;;;7.15;100.00;102741.56;4919480;29;20066;-85
2022/04/15 05:45:01;;;;;;;15.38;9.25;;;;;;;7.15;100.00;102748.56;4934004;29;20047;-86
2022/04/15 05:47:29;;;;;;;14.98;9.77;;;;;;;7.16;100.00;102751.22;4928059;29;20044;-85
2022/04/15 05:49:58;;;;;;;20.83;11.13;;;;;;;7.14;100.00;102765.09;4928863;29;20489;-86
2022/04/15 05:52:30;;;;;;;15.68;10.43;;;;;;;7.12;100.00;102754.53;4909231;29;20150;-87
2022/04/15 05:54:58;;;;;;;15.13;9.50;;;;;;;7.11;100.00;102760.59;4938384;29;20035;-86
2022/04/15 05:57:27;;;;;;;16.48;10.10;;;;;;;7.13;100.00;102768.56;4926903;28;20066;-85
2022/04/15 05:59:55;;;;;;;13.75;9.32;;;;;;;7.11;100.00;102759.72;4924192;29;20538;-86
2022/04/15 06:02:24;;;;;;;18.15;9.32;;;;;;;7.15;100.00;102762.53;4932796;29;20015;-86
2022/04/15 06:04:53;;;;;;;19.83;9.00;;;;;;;7.18;100.00;102767.94;4937630;29;20031;-86
2022/04/15 06:07:21;;;;;;;16.48;8.85;;;;;;;7.22;100.00;102774.22;4937846;29;20046;-86
2022/04/15 06:09:50;;;;;;;13.32;8.07;;;;;;;7.23;100.00;102781.25;4934332;29;20028;-87
2022/04/15 06:12:21;;;;;;;16.33;7.05;;;;;;;7.23;100.00;102784.78;4904449;29;20058;-86
2022/04/15 06:14:50;;;;;;;18.35;7.15;;;;;;;7.21;100.00;102785.53;4897647;28;20059;-86
2022/04/15 06:17:22;;;;;;;14.18;6.15;;;;;;;7.20;100.00;102781.09;4926166;29;20058;-85
2022/04/15 06:19:50;;;;;;;14.45;6.88;;;;;;;7.21;100.00;102782.91;4918665;28;20047;-86
2022/04/15 06:22:19;;;;;;;13.38;6.80;;;;;;;7.22;100.00;102787.31;4956571;29;20063;-84
2022/04/15 06:24:47;;;;;;;11.27;6.68;;;;;;;7.21;100.00;102789.06;4942672;28;20043;-85
2022/04/15 06:27:16;;;;;;;13.00;6.55;;;;;;;7.23;100.00;102786.50;4950204;28;20051;-83
2022/04/15 06:29:44;;;;;;;14.80;6.10;;;;;;;7.25;100.00;102789.22;4911283;28;20047;-86
2022/04/15 06:32:12;;;;;;;18.13;7.25;;;;;;;7.24;100.00;102796.19;4946207;29;20073;-85
2022/04/15 06:34:41;;;;;;;9.27;6.00;;;;;;;7.26;100.00;102791.00;4924540;28;20035;-86
2022/04/15 06:37:09;;;;;;;9.73;5.55;;;;;;;7.28;100.00;102795.50;4923281;29;20501;-85
2022/04/15 06:39:38;;;;;;;11.38;6.30;;;;;;;7.31;100.00;102808.75;4952913;28;20047;-87
2022/04/15 06:42:07;;;;;;;12.85;6.05;;;;;;;7.34;100.00;102805.38;4970822;28;20532;-84
2022/04/15 06:44:37;;;;;;;9.15;5.47;;;;;;;7.37;100.00;102810.75;4946142;28;20051;-86
2022/04/15 06:47:08;;;;;;;8.25;5.40;;;;;;;7.33;100.00;102809.72;4929859;29;20070;-85
2022/04/15 06:49:36;;;;;;;9.40;4.95;;;;;;;7.33;100.00;102819.31;4911472;28;20414;-86
2022/04/15 06:52:05;;;;;;;16.02;5.88;;;;;;;7.30;100.00;102820.06;4947828;28;20453;-85
2022/04/15 06:54:34;;;;;;;17.25;6.45;;;;;;;7.33;100.00;102822.81;4935609;29;20052;-85
2022/04/15 06:57:06;;;;;;;9.20;5.85;;;;;;;7.36;100.00;102822.09;4896699;28;20151;-86
2022/04/15 06:59:35;;;;;;;7.70;5.15;;;;;;;7.36;100.00;102828.22;4945139;28;20489;-86
2022/04/15 07:02:05;;;;;;;11.35;5.03;;;;;;;7.39;100.00;102828.38;4950321;28;20046;-85
2022/04/15 07:04:34;;;;;;;12.02;5.20;;;;;;;7.38;100.00;102837.06;4923779;29;20050;-86
2022/04/15 07:07:03;;;;;;;12.10;5.93;;;;;;;7.39;100.00;102837.97;4913409;29;20043;-86
2022/04/15 07:09:32;;;;;;;7.57;4.88;;;;;;;7.44;100.00;102833.84;4922215;29;20043;-86
2022/04/15 07:12:00;;;;;;;6.70;4.90;;;;;;;7.46;100.00;102833.91;4953612;28;20051;-86
2022/04/15 07:14:30;;;;;;;9.25;5.13;;;;;;;7.49;100.00;102840.22;4931777;28;20093;-86
2022/04/15 07:16:59;;;;;;;9.57;5.28;;;;;;;7.49;100.00;102836.72;4934550;28;20050;-86
2022/04/15 07:19:28;;;;;;;6.18;4.30;;;;;;;7.51;100.00;102840.28;4922605;29;20043;-87
2022/04/15 07:21:57;;;;;;;7.25;4.20;;;;;;;7.56;100.00;102844.00;4932626;29;20051;-87
2022/04/15 07:24:27;;;;;;;8.38;4.55;;;;;;;7.58;100.00;102844.97;4953069;28;20030;-85
2022/04/15 07:26:55;;;;;;;11.63;4.80;;;;;;;7.59;100.00;102841.53;4937990;29;20520;-86
2022/04/15 07:29:26;;;;;;;10.27;5.05;;;;;;;7.64;100.00;102847.91;4919342;29;20051;-85
2022/04/15 07:31:54;;;;;;;10.15;4.78;;;;;;;7.70;100.00;102856.06;4907947;29;20042;-85
2022/04/15 07:34:29;;;;;;;8.38;4.53;;;;;;;7.79;100.00;102855.63;4929203;29;20032;-87
2022/04/15 07:37:03;;;;;;;11.13;4.85;;;;;;;7.89;100.00;102843.81;4915772;28;20059;-86
2022/04/15 07:39:32;;;;;;;9.05;4.15;;;;;;;7.99;100.00;102843.41;4953104;28;20035;-86
2022/04/15 07:42:00;;;;;;;6.57;4.38;;;;;;;8.02;100.00;102846.19;4941986;29;20078;-86
2022/04/15 07:44:35;;;;;;;11.15;4.60;;;;;;;8.02;100.00;102848.81;4925731;29;20389;-86
2022/04/15 07:47:04;;;;;;;8.07;4.85;;;;;;;8.05;100.00;102846.28;4921623;29;20457;-86
2022/04/15 07:49:33;;;;;;;10.60;4.43;;;;;;;8.14;100.00;102853.69;4920916;29;20048;-87
2022/04/15 07:52:04;;;;;;;9.70;4.38;;;;;;;8.22;100.00;102851.41;4901932;28;20062;-86
2022/04/15 07:54:33;;;;;;;11.02;5.53;;;;;;;8.30;100.00;102861.44;4939594;29;20058;-86
2022/04/15 07:57:02;;;;;;;7.45;4.70;;;;;;;8.40;100.00;102854.88;4907153;29;20047;-87
2022/04/15 07:59:31;;;;;;;14.48;5.90;;;;;;;8.49;100.00;102855.31;4946098;28;20043;-85
2022/04/15 08:01:59;;;;;;;10.00;5.07;;;;;;;8.63;100.00;102855.91;4912440;28;20052;-87
2022/04/15 08:04:30;;;;;;;14.23;5.55;;;;;;;8.83;100.00;102855.84;4934525;29;20046;-87
2022/04/15 08:06:58;;;;;;;9.77;4.22;;;;;;;9.01;100.00;102858.38;4925039;28;20175;-86
2022/04/15 08:09:27;;;;;;;6.55;4.00;;;;;;;9.10;100.00;102864.03;4915070;29;20043;-86
2022/04/15 08:11:56;;;;;;;8.55;4.80;;;;;;;9.17;100.00;102861.69;4956280;28;20047;-86
2022/04/15 08:14:24;;;;;;;6.65;4.93;;;;;;;9.21;100.00;102873.25;4927703;29;20047;-85
2022/04/15 08:16:53;;;;;;;11.88;5.25;;;;;;;9.15;100.00;102878.28;4927312;29;20046;-87
2022/04/15 08:19:22;;;;;;;8.00;4.47;;;;;;;9.04;100.00;102876.91;4898578;28;20059;-86
2022/04/15 08:21:53;;;;;;;8.38;4.22;;;;;;;9.00;100.00;102883.78;4909525;29;20039;-84
2022/04/15 08:24:22;;;;;;;11.02;4.80;;;;;;;9.01;100.00;102882.03;4923216;28;20260;-86
2022/04/15 08:26:54;;;;;;;11.50;4.40;;;;;;;8.98;100.00;102875.81;4937315;28;20043;-87
2022/04/15 08:29:23;;;;;;;13.10;4.70;;;;;;;8.98;100.00;102878.44;4939299;28;20050;-84
2022/04/15 08:31:51;;;;;;;11.35;5.03;;;;;;;9.05;100.00;102883.97;4913729;29;20043;-84
2022/04/15 08:34:20;;;;;;;5.97;4.32;;;;;;;9.12;100.00;102886.03;4921658;29;20055;-84
2022/04/15 08:36:48;;;;;;;10.98;4.63;;;;;;;9.23;100.00;102884.72;4937708;29;20035;-84
2022/04/15 08:39:17;;;;;;;10.15;4.85;;;;;;;9.29;100.00;102879.72;4918617;28;20379;-85
2022/04/15 08:41:46;;;;;;;9.65;5.07;;;;;;;9.36;100.00;102880.88;4934860;29;20050;-84
2022/04/15 08:44:14;;;;;;;8.48;5.05;;;;;;;9.36;100.00;102886.16;4947754;28;20604;-85
2022/04/15 08:46:44;;;;;;;8.38;4.72;;;;;;;9.33;100.00;102889.53;4921140;28;20042;-85
2022/04/15 08:49:14;;;;;;;8.97;4.47;;;;;;;9.38;100.00;102889.72;4897561;28;20158;-85
2022/04/15 08:51:43;;;;;;;9.82;5.30;;;;;;;9.32;100.00;102894.75;4952231;28;20359;-85
2022/04/15 08:54:12;;;;;;;11.50;5.38;;;;;;;9.30;100.00;102897.31;4912145;29;20241;-85
2022/04/15 08:56:48;;;;;;;7.43;4.60;;;;;;;9.33;100.00;102900.03;4927120;29;20055;-86
2022/04/15 08:59:20;;;;;;;10.85;5.10;;;;;;;9.36;100.00;102900.19;4920470;28;20048;-86
2022/04/15 09:01:50;;;;;;;8.63;4.97;;;;;;;9.35;100.00;102905.38;4933394;28;20047;-85
2022/04/15 09:04:19;;;;;;;10.98;5.60;;;;;;;9.37;100.00;102911.59;4933185;29;20040;-86
2022/04/15 09:06:55;;;;;;;9.48;4.90;;;;;;;9.43;100.00;102908.31;4918294;28;20051;-86
2022/04/15 09:09:31;;;;;;;8.27;4.95;;;;;;;9.43;100.00;102903.06;4914800;29;20059;-86
2022/04/15 09:12:04;;;;;;;7.53;4.47;;;;;;;9.34;100.00;102915.00;4929584;29;20051;-86
2022/04/15 09:14:32;;;;;;;8.02;5.15;;;;;;;9.32;100.00;102921.06;4938025;28;20050;-85
2022/04/15 09:17:02;;;;;;;8.38;4.93;;;;;;;9.35;100.00;102923.81;4926484;28;20039;-86
2022/04/15 09:19:32;;;;;;;7.97;4.95;;;;;;;9.43;100.00;102918.84;4936655;29;20047;-86
2022/04/15 09:22:01;;;;;;;7.55;4.68;;;;;;;9.45;100.00;102926.00;4915924;28;20051;-86
2022/04/15 09:24:34;;;;;;;10.00;4.82;;;;;;;9.38;100.00;102921.31;4947567;28;20043;-86
2022/04/15 09:27:06;;;;;;;10.68;5.55;;;;;;;9.39;100.00;102922.19;4939721;28;20044;-86
2022/04/15 09:29:38;;;;;;;8.18;4.97;;;;;;;9.40;100.00;102926.63;4955688;28;20067;-86
2022/04/15 09:32:14;;;;;;;8.95;5.20;;;;;;;9.45;100.00;102920.72;4935813;28;20044;-86
2022/04/15 09:35:04;;;;;;;9.35;4.47;;;;;;;9.48;100.00;102930.47;4957029;28;20069;-85
2022/04/15 09:37:44;;;;;;;8.73;4.82;;;;;;;9.46;100.00;102927.78;4953849;28;20043;-86
2022/04/15 09:40:25;;;;;;;10.15;5.20;;;;;;;9.47;100.00;102931.28;4931380;29;20050;-85
2022/04/15 09:42:55;;;;;;;13.32;5.30;;;;;;;9.39;100.00;102927.47;4943550;28;20039;-84
2022/04/15 09:45:29;;;;;;;8.85;4.68;;;;;;;9.27;100.00;102928.75;4946295;29;20046;-86
2022/04/15 09:47:59;;;;;;;7.05;4.70;;;;;;;9.24;100.00;102936.50;4942924;28;20051;-84
2022/04/15 09:50:34;;;;;;;;;;;;;;;9.24;100.00;102932.97;4948837;29;20051;-86
2022/04/15 09:53:16;;;;;;;9.00;4.85;;;;;;;9.24;100.00;102935.59;4932622;28;19922;-86
2022/04/15 09:55:56;;;;;;;6.82;4.38;;;;;;;9.22;100.00;102935.53;4936877;28;20043;-86
2022/04/15 09:58:31;;;;;;;8.57;4.38;;;;;;;9.18;100.00;102936.25;4930618;29;20054;-86
2022/04/15 10:01:02;;;;;;;9.20;5.22;;;;;;;9.09;100.00;102942.03;4916795;29;20073;-86
2022/04/15 10:03:35;;;;;;;9.07;4.25;;;;;;;8.97;100.00;102942.38;4943893;28;20051;-85
2022/04/15 10:06:07;;;;;;;6.22;4.60;;;;;;;8.91;100.00;102954.38;4935264;28;20042;-86
2022/04/15 10:08:56;;;;;;;5.43;4.32;;;;;;;8.83;100.00;102940.91;4922191;28;20246;-86
2022/04/15 10:11:25;;;;;;;5.38;4.18;;;;;;;8.87;100.00;102942.81;4928201;29;20539;-86
2022/04/15 10:13:55;;;;;;;4.75;3.50;;;;;;;8.94;100.00;102944.91;4934196;28;20345;-86
2022/04/15 10:16:24;;;;;;;;;;;;;;;8.98;100.00;102938.03;4914022;29;20744;-86
2022/04/15 10:18:53;;;;;;;7.05;3.95;;;;;;;9.03;100.00;102947.00;4948806;28;20463;-86
2022/04/15 10:21:21;;;;;;;5.35;4.03;;;;;;;9.08;100.00;102942.84;4912062;29;20039;-85
2022/04/15 10:23:51;;;;;;;8.15;4.35;;;;;;;9.14;100.00;102947.47;4925276;29;20047;-84
2022/04/15 10:26:21;;;;;;;4.55;4.15;;;;;;;9.13;100.00;102948.28;4914354;28;20400;-86
2022/04/15 10:28:53;;;;;;;6.60;3.80;;;;;;;9.07;100.00;102948.94;4933128;29;20385;-86
2022/04/15 10:31:24;;;;;;;5.72;3.60;;;;;;;9.03;100.00;102940.84;4941643;28;20054;-86
2022/04/15 10:34:08;;;;;;;4.97;3.58;;;;;;;9.01;100.00;102935.53;4911397;29;20043;-83
2022/04/15 10:36:38;;;;;;;5.97;4.10;;;;;;;9.02;100.00;102939.03;4961146;28;20054;-86
2022/04/15 10:39:06;;;;;;;8.68;3.92;;;;;;;9.03;100.00;102944.38;4914108;28;20070;-88
2022/04/15 10:41:41;;;;;;;5.38;4.03;;;;;;;9.08;100.00;102941.97;4952117;28;20404;-87
2022/04/15 10:44:14;;;;;;;8.65;4.60;;;;;;;9.17;100.00;102942.34;4918092;28;20493;-87
2022/04/15 10:46:43;;;;;;;4.55;3.78;;;;;;;9.18;100.00;102942.41;4958742;28;20058;-87
2022/04/15 10:49:26;;;;;;;6.32;3.90;;;;;;;9.18;100.00;102945.03;4925097;28;20051;-83
2022/04/15 10:52:03;;;;;;;6.78;4.45;;;;;;;9.22;100.00;102945.16;4950980;28;20023;-84
2022/04/15 10:54:35;;;;;;;6.00;4.35;;;;;;;9.20;100.00;102953.00;4900992;28;20058;-85
2022/04/15 10:57:09;;;;;;;9.90;3.95;;;;;;;9.18;100.00;102941.50;4930630;29;20042;-86
2022/04/15 11:02:51;;;;;;;8.40;3.95;;;;;;;9.17;100.00;102947.63;4933769;28;20046;-86
2022/04/15 11:05:53;;;;;;;8.85;4.22;;;;;;;9.11;100.00;102952.59;4945819;28;20059;-87
2022/04/15 11:08:25;;;;;;;4.75;3.90;;;;;;;9.04;100.00;102956.72;4943324;28;20055;-87
2022/04/15 11:10:57;;;;;;;5.82;4.03;;;;;;;9.03;100.00;102954.00;4937716;28;20040;-84
2022/04/15 11:13:33;;;;;;;4.75;4.07;;;;;;;9.06;100.00;102959.41;4932880;29;20055;-88
2022/04/15 11:16:27;;;;;;;6.45;4.15;;;;;;;9.06;100.00;102965.56;4940050;28;20051;-89
2022/04/15 11:19:01;;;;;;;4.97;3.65;;;;;;;9.11;100.00;102969.31;4950118;28;20042;-85
2022/04/15 11:21:32;;;;;;;6.60;4.03;;;;;;;9.08;100.00;102971.78;4942736;28;20051;-82
2022/04/15 11:24:06;;;;;;;6.22;4.05;;;;;;;9.04;100.00;102979.50;4931365;28;20523;-84
2022/04/15 11:26:37;;;;;;;7.93;4.13;;;;;;;8.98;100.00;102973.13;4949527;28;20062;-84
2022/04/15 11:29:07;;;;;;;6.00;3.50;;;;;;;8.95;100.00;102970.34;4931637;29;20055;-83
2022/04/15 11:31:41;;;;;;;6.82;3.55;;;;;;;8.97;100.00;102971.31;4953986;28;20062;-82
2022/04/15 11:34:14;;;;;;;7.97;4.40;;;;;;;8.98;100.00;102975.75;4944200;28;20062;-84
2022/04/15 11:36:52;;;;;;;9.85;4.43;;;;;;;9.03;100.00;102980.31;4946363;28;20047;-81
2022/04/15 11:39:22;;;;;;;6.70;4.22;;;;;;;9.07;100.00;102979.59;4911455;29;20058;-81